sensor_id;sensor_type;location;lat;lon;timestamp;temperature;humidity
64833;HTU21D;51290;45.060;38.948;2023-04-24T00:00:56;10.65;67.33
64833;HTU21D;51290;45.060;38.948;2023-04-24T00:03:23;10.65;68.02
64833;HTU21D;51290;45.060;38.948;2023-04-24T00:05:49;10.70;68.07
64833;HTU21D;51290;45.060;38.948;2023-04-24T00:08:17;10.71;67.88
64833;HTU21D;51290;45.060;38.948;2023-04-24T00:10:43;10.72;67.86
64833;HTU21D;51290;45.060;38.948;2023-04-24T00:13:09;10.74;67.80
64833;HTU21D;51290;45.060;38.948;2023-04-24T00:15:35;10.75;67.81
64833;HTU21D;51290;45.060;38.948;2023-04-24T00:18:01;10.74;67.72
64833;HTU21D;51290;45.060;38.948;2023-04-24T00:20:28;10.74;67.82
64833;HTU21D;51290;45.060;38.948;2023-04-24T00:22:55;10.74;67.74
64833;HTU21D;51290;45.060;38.948;2023-04-24T00:25:21;10.73;67.68
64833;HTU21D;51290;45.060;38.948;2023-04-24T00:27:47;10.70;67.67
64833;HTU21D;51290;45.060;38.948;2023-04-24T00:30:13;10.69;67.69
64833;HTU21D;51290;45.060;38.948;2023-04-24T00:32:39;10.67;67.69
64833;HTU21D;51290;45.060;38.948;2023-04-24T00:35:06;10.64;67.70
64833;HTU21D;51290;45.060;38.948;2023-04-24T00:37:32;10.60;67.70
64833;HTU21D;51290;45.060;38.948;2023-04-24T00:39:58;10.57;67.79
64833;HTU21D;51290;45.060;38.948;2023-04-24T00:42:24;10.52;67.79
64833;HTU21D;51290;45.060;38.948;2023-04-24T00:44:50;10.49;67.78
64833;HTU21D;51290;45.060;38.948;2023-04-24T00:47:18;10.43;67.82
64833;HTU21D;51290;45.060;38.948;2023-04-24T00:49:45;10.38;67.90
64833;HTU21D;51290;45.060;38.948;2023-04-24T00:52:11;10.34;67.97
64833;HTU21D;51290;45.060;38.948;2023-04-24T00:54:38;10.34;68.01
64833;HTU21D;51290;45.060;38.948;2023-04-24T00:57:03;10.31;68.05
64833;HTU21D;51290;45.060;38.948;2023-04-24T00:59:30;10.30;68.10
64833;HTU21D;51290;45.060;38.948;2023-04-24T01:01:57;10.31;68.13
64833;HTU21D;51290;45.060;38.948;2023-04-24T01:04:23;10.34;68.17
64833;HTU21D;51290;45.060;38.948;2023-04-24T01:06:50;10.36;68.20
64833;HTU21D;51290;45.060;38.948;2023-04-24T01:09:17;10.38;68.23
64833;HTU21D;51290;45.060;38.948;2023-04-24T01:11:43;10.42;68.20
64833;HTU21D;51290;45.060;38.948;2023-04-24T01:14:11;10.45;68.33
64833;HTU21D;51290;45.060;38.948;2023-04-24T01:16:37;10.48;68.29
64833;HTU21D;51290;45.060;38.948;2023-04-24T01:19:05;10.53;68.31
64833;HTU21D;51290;45.060;38.948;2023-04-24T01:21:34;10.58;68.62
64833;HTU21D;51290;45.060;38.948;2023-04-24T01:24:03;10.64;68.52
64833;HTU21D;51290;45.060;38.948;2023-04-24T01:26:29;10.67;68.42
64833;HTU21D;51290;45.060;38.948;2023-04-24T01:28:55;10.70;68.46
64833;HTU21D;51290;45.060;38.948;2023-04-24T01:31:22;10.73;68.37
64833;HTU21D;51290;45.060;38.948;2023-04-24T01:33:48;10.77;68.33
64833;HTU21D;51290;45.060;38.948;2023-04-24T01:36:16;10.81;68.29
64833;HTU21D;51290;45.060;38.948;2023-04-24T01:38:43;10.83;68.30
64833;HTU21D;51290;45.060;38.948;2023-04-24T01:41:10;10.84;68.34
64833;HTU21D;51290;45.060;38.948;2023-04-24T01:43:36;10.86;68.32
64833;HTU21D;51290;45.060;38.948;2023-04-24T01:46:02;10.86;68.30
64833;HTU21D;51290;45.060;38.948;2023-04-24T01:48:28;10.88;68.30
64833;HTU21D;51290;45.060;38.948;2023-04-24T01:50:56;10.88;68.33
64833;HTU21D;51290;45.060;38.948;2023-04-24T01:53:22;10.89;68.31
64833;HTU21D;51290;45.060;38.948;2023-04-24T01:55:48;10.90;68.32
64833;HTU21D;51290;45.060;38.948;2023-04-24T01:58:14;10.92;68.33
64833;HTU21D;51290;45.060;38.948;2023-04-24T02:00:40;10.93;68.35
64833;HTU21D;51290;45.060;38.948;2023-04-24T02:03:06;10.94;68.37
64833;HTU21D;51290;45.060;38.948;2023-04-24T02:05:33;10.95;68.70
64833;HTU21D;51290;45.060;38.948;2023-04-24T02:07:58;10.97;68.54
64833;HTU21D;51290;45.060;38.948;2023-04-24T02:10:25;10.99;68.52
64833;HTU21D;51290;45.060;38.948;2023-04-24T02:12:51;11.00;68.53
64833;HTU21D;51290;45.060;38.948;2023-04-24T02:15:17;11.02;68.62
64833;HTU21D;51290;45.060;38.948;2023-04-24T02:17:43;11.05;68.75
64833;HTU21D;51290;45.060;38.948;2023-04-24T02:20:09;11.10;68.71
64833;HTU21D;51290;45.060;38.948;2023-04-24T02:22:37;11.11;68.68
64833;HTU21D;51290;45.060;38.948;2023-04-24T02:25:03;11.14;68.65
64833;HTU21D;51290;45.060;38.948;2023-04-24T02:27:30;11.17;68.63
64833;HTU21D;51290;45.060;38.948;2023-04-24T02:29:56;11.22;68.64
64833;HTU21D;51290;45.060;38.948;2023-04-24T02:32:22;11.25;68.64
64833;HTU21D;51290;45.060;38.948;2023-04-24T02:34:48;11.28;68.66
64833;HTU21D;51290;45.060;38.948;2023-04-24T02:37:14;11.31;68.65
64833;HTU21D;51290;45.060;38.948;2023-04-24T02:39:40;11.34;68.97
64833;HTU21D;51290;45.060;38.948;2023-04-24T02:42:06;11.39;68.75
64833;HTU21D;51290;45.060;38.948;2023-04-24T02:44:34;11.41;68.70
64833;HTU21D;51290;45.060;38.948;2023-04-24T02:47:00;11.45;68.68
64833;HTU21D;51290;45.060;38.948;2023-04-24T02:49:26;11.47;68.65
64833;HTU21D;51290;45.060;38.948;2023-04-24T02:51:53;11.52;68.63
64833;HTU21D;51290;45.060;38.948;2023-04-24T02:54:19;11.55;68.61
64833;HTU21D;51290;45.060;38.948;2023-04-24T02:56:45;11.59;68.58
64833;HTU21D;51290;45.060;38.948;2023-04-24T02:59:11;11.63;68.54
64833;HTU21D;51290;45.060;38.948;2023-04-24T03:01:37;11.67;68.49
64833;HTU21D;51290;45.060;38.948;2023-04-24T03:04:03;11.69;68.46
64833;HTU21D;51290;45.060;38.948;2023-04-24T03:06:29;11.72;68.43
64833;HTU21D;51290;45.060;38.948;2023-04-24T03:08:56;11.76;68.43
64833;HTU21D;51290;45.060;38.948;2023-04-24T03:11:22;11.81;68.42
64833;HTU21D;51290;45.060;38.948;2023-04-24T03:13:48;11.85;68.46
64833;HTU21D;51290;45.060;38.948;2023-04-24T03:16:14;11.89;68.48
64833;HTU21D;51290;45.060;38.948;2023-04-24T03:18:40;11.93;68.43
64833;HTU21D;51290;45.060;38.948;2023-04-24T03:21:07;11.98;68.43
64833;HTU21D;51290;45.060;38.948;2023-04-24T03:23:34;12.04;68.40
64833;HTU21D;51290;45.060;38.948;2023-04-24T03:26:00;12.10;68.36
64833;HTU21D;51290;45.060;38.948;2023-04-24T03:28:26;12.15;68.32
64833;HTU21D;51290;45.060;38.948;2023-04-24T03:31:03;12.23;68.28
64833;HTU21D;51290;45.060;38.948;2023-04-24T03:33:32;12.30;68.21
64833;HTU21D;51290;45.060;38.948;2023-04-24T03:36:00;12.36;68.10
64833;HTU21D;51290;45.060;38.948;2023-04-24T03:38:33;12.42;68.04
64833;HTU21D;51290;45.060;38.948;2023-04-24T03:41:06;12.49;68.04
64833;HTU21D;51290;45.060;38.948;2023-04-24T03:43:52;12.51;67.98
64833;HTU21D;51290;45.060;38.948;2023-04-24T03:46:19;12.52;67.97
64833;HTU21D;51290;45.060;38.948;2023-04-24T03:48:52;12.55;68.01
64833;HTU21D;51290;45.060;38.948;2023-04-24T03:51:21;12.57;68.01
64833;HTU21D;51290;45.060;38.948;2023-04-24T03:53:51;12.59;68.00
64833;HTU21D;51290;45.060;38.948;2023-04-24T03:56:20;12.62;67.98
64833;HTU21D;51290;45.060;38.948;2023-04-24T03:58:46;12.64;67.98
64833;HTU21D;51290;45.060;38.948;2023-04-24T04:01:12;12.64;67.92
64833;HTU21D;51290;45.060;38.948;2023-04-24T04:03:56;12.66;67.99
64833;HTU21D;51290;45.060;38.948;2023-04-24T04:06:24;12.67;68.00
64833;HTU21D;51290;45.060;38.948;2023-04-24T04:08:53;12.70;67.95
64833;HTU21D;51290;45.060;38.948;2023-04-24T04:11:19;12.71;67.97
64833;HTU21D;51290;45.060;38.948;2023-04-24T04:13:45;12.69;68.03
64833;HTU21D;51290;45.060;38.948;2023-04-24T04:16:15;12.70;68.07
64833;HTU21D;51290;45.060;38.948;2023-04-24T04:18:48;12.67;68.07
64833;HTU21D;51290;45.060;38.948;2023-04-24T04:21:15;12.63;68.06
64833;HTU21D;51290;45.060;38.948;2023-04-24T04:23:41;12.60;68.10
64833;HTU21D;51290;45.060;38.948;2023-04-24T04:26:13;12.56;68.17
64833;HTU21D;51290;45.060;38.948;2023-04-24T04:29:06;12.49;68.25
64833;HTU21D;51290;45.060;38.948;2023-04-24T04:31:35;12.46;68.36
64833;HTU21D;51290;45.060;38.948;2023-04-24T04:34:06;12.46;68.43
64833;HTU21D;51290;45.060;38.948;2023-04-24T04:36:33;12.45;68.45
64833;HTU21D;51290;45.060;38.948;2023-04-24T04:39:14;12.45;68.46
64833;HTU21D;51290;45.060;38.948;2023-04-24T04:41:58;12.47;68.49
64833;HTU21D;51290;45.060;38.948;2023-04-24T04:44:32;12.50;68.53
64833;HTU21D;51290;45.060;38.948;2023-04-24T04:46:59;12.56;68.57
64833;HTU21D;51290;45.060;38.948;2023-04-24T04:49:29;12.62;68.58
64833;HTU21D;51290;45.060;38.948;2023-04-24T04:51:56;12.71;68.60
64833;HTU21D;51290;45.060;38.948;2023-04-24T04:54:25;12.78;68.56
64833;HTU21D;51290;45.060;38.948;2023-04-24T04:56:51;12.87;68.52
64833;HTU21D;51290;45.060;38.948;2023-04-24T04:59:17;12.96;68.47
64833;HTU21D;51290;45.060;38.948;2023-04-24T05:01:43;13.07;68.46
64833;HTU21D;51290;45.060;38.948;2023-04-24T05:04:11;13.18;68.46
64833;HTU21D;51290;45.060;38.948;2023-04-24T05:06:37;13.29;68.45
64833;HTU21D;51290;45.060;38.948;2023-04-24T05:09:05;13.43;68.46
64833;HTU21D;51290;45.060;38.948;2023-04-24T05:11:48;13.58;68.36
64833;HTU21D;51290;45.060;38.948;2023-04-24T05:14:14;13.66;68.22
64833;HTU21D;51290;45.060;38.948;2023-04-24T05:16:42;13.79;68.12
64833;HTU21D;51290;45.060;38.948;2023-04-24T05:19:09;13.83;67.97
64833;HTU21D;51290;45.060;38.948;2023-04-24T05:21:40;13.80;67.88
64833;HTU21D;51290;45.060;38.948;2023-04-24T05:24:07;13.79;67.88
64833;HTU21D;51290;45.060;38.948;2023-04-24T05:26:45;13.77;67.96
64833;HTU21D;51290;45.060;38.948;2023-04-24T05:29:14;13.73;68.04
64833;HTU21D;51290;45.060;38.948;2023-04-24T05:31:41;13.69;68.07
64833;HTU21D;51290;45.060;38.948;2023-04-24T05:34:08;13.66;68.10
64833;HTU21D;51290;45.060;38.948;2023-04-24T05:36:38;13.60;68.28
64833;HTU21D;51290;45.060;38.948;2023-04-24T05:39:04;13.56;68.41
64833;HTU21D;51290;45.060;38.948;2023-04-24T05:41:30;13.53;68.48
64833;HTU21D;51290;45.060;38.948;2023-04-24T05:43:56;13.52;68.49
64833;HTU21D;51290;45.060;38.948;2023-04-24T05:46:22;13.51;68.54
64833;HTU21D;51290;45.060;38.948;2023-04-24T05:48:49;13.54;68.54
64833;HTU21D;51290;45.060;38.948;2023-04-24T05:51:15;13.55;68.57
64833;HTU21D;51290;45.060;38.948;2023-04-24T05:53:41;13.58;68.56
64833;HTU21D;51290;45.060;38.948;2023-04-24T05:56:08;13.62;68.57
64833;HTU21D;51290;45.060;38.948;2023-04-24T05:58:35;13.69;68.59
64833;HTU21D;51290;45.060;38.948;2023-04-24T06:01:01;13.76;68.49
64833;HTU21D;51290;45.060;38.948;2023-04-24T06:03:28;13.79;68.41
64833;HTU21D;51290;45.060;38.948;2023-04-24T06:05:54;13.81;68.36
64833;HTU21D;51290;45.060;38.948;2023-04-24T06:08:21;13.85;68.41
64833;HTU21D;51290;45.060;38.948;2023-04-24T06:10:48;13.92;68.41
64833;HTU21D;51290;45.060;38.948;2023-04-24T06:13:17;13.99;68.35
64833;HTU21D;51290;45.060;38.948;2023-04-24T06:15:59;14.06;68.31
64833;HTU21D;51290;45.060;38.948;2023-04-24T06:18:33;14.10;68.23
64833;HTU21D;51290;45.060;38.948;2023-04-24T06:20:59;14.17;68.22
64833;HTU21D;51290;45.060;38.948;2023-04-24T06:23:25;14.23;68.24
64833;HTU21D;51290;45.060;38.948;2023-04-24T06:25:51;14.30;68.20
64833;HTU21D;51290;45.060;38.948;2023-04-24T06:28:17;14.40;68.19
64833;HTU21D;51290;45.060;38.948;2023-04-24T06:30:43;14.51;68.15
64833;HTU21D;51290;45.060;38.948;2023-04-24T06:33:09;14.63;68.13
64833;HTU21D;51290;45.060;38.948;2023-04-24T06:35:36;14.77;68.07
64833;HTU21D;51290;45.060;38.948;2023-04-24T06:38:03;14.89;67.94
64833;HTU21D;51290;45.060;38.948;2023-04-24T06:40:29;15.02;67.79
64833;HTU21D;51290;45.060;38.948;2023-04-24T06:42:55;15.12;67.63
64833;HTU21D;51290;45.060;38.948;2023-04-24T06:45:23;15.22;67.58
64833;HTU21D;51290;45.060;38.948;2023-04-24T06:47:49;15.33;67.51
64833;HTU21D;51290;45.060;38.948;2023-04-24T06:50:15;15.45;67.46
64833;HTU21D;51290;45.060;38.948;2023-04-24T06:52:41;15.60;67.32
64833;HTU21D;51290;45.060;38.948;2023-04-24T06:55:07;15.72;67.18
64833;HTU21D;51290;45.060;38.948;2023-04-24T06:57:34;15.84;66.98
64833;HTU21D;51290;45.060;38.948;2023-04-24T07:00:00;15.89;66.83
64833;HTU21D;51290;45.060;38.948;2023-04-24T07:02:26;15.96;66.74
64833;HTU21D;51290;45.060;38.948;2023-04-24T07:04:52;15.98;66.58
64833;HTU21D;51290;45.060;38.948;2023-04-24T07:07:18;16.00;66.67
64833;HTU21D;51290;45.060;38.948;2023-04-24T07:09:44;16.06;66.85
64833;HTU21D;51290;45.060;38.948;2023-04-24T07:12:11;16.16;66.83
64833;HTU21D;51290;45.060;38.948;2023-04-24T07:14:37;16.30;66.79
64833;HTU21D;51290;45.060;38.948;2023-04-24T07:17:04;16.47;66.78
64833;HTU21D;51290;45.060;38.948;2023-04-24T07:19:33;16.66;66.68
64833;HTU21D;51290;45.060;38.948;2023-04-24T07:22:01;16.90;66.49
64833;HTU21D;51290;45.060;38.948;2023-04-24T07:24:27;17.18;66.27
64833;HTU21D;51290;45.060;38.948;2023-04-24T07:26:54;17.44;65.98
64833;HTU21D;51290;45.060;38.948;2023-04-24T07:29:20;17.67;65.66
64833;HTU21D;51290;45.060;38.948;2023-04-24T07:31:46;17.90;65.28
64833;HTU21D;51290;45.060;38.948;2023-04-24T07:34:13;18.03;64.69
64833;HTU21D;51290;45.060;38.948;2023-04-24T07:36:39;18.11;64.60
64833;HTU21D;51290;45.060;38.948;2023-04-24T07:39:06;18.22;64.67
64833;HTU21D;51290;45.060;38.948;2023-04-24T07:41:32;18.33;64.37
64833;HTU21D;51290;45.060;38.948;2023-04-24T07:43:58;18.39;64.24
64833;HTU21D;51290;45.060;38.948;2023-04-24T07:46:24;18.41;64.01
64833;HTU21D;51290;45.060;38.948;2023-04-24T07:48:50;18.42;64.10
64833;HTU21D;51290;45.060;38.948;2023-04-24T07:51:17;18.39;64.04
64833;HTU21D;51290;45.060;38.948;2023-04-24T07:53:43;18.36;64.21
64833;HTU21D;51290;45.060;38.948;2023-04-24T07:56:09;18.37;64.18
64833;HTU21D;51290;45.060;38.948;2023-04-24T07:58:35;18.39;64.11
64833;HTU21D;51290;45.060;38.948;2023-04-24T08:01:01;18.35;63.56
64833;HTU21D;51290;45.060;38.948;2023-04-24T08:03:27;18.19;63.50
64833;HTU21D;51290;45.060;38.948;2023-04-24T08:05:53;18.03;63.53
64833;HTU21D;51290;45.060;38.948;2023-04-24T08:08:21;17.80;63.35
64833;HTU21D;51290;45.060;38.948;2023-04-24T08:10:48;17.55;63.57
64833;HTU21D;51290;45.060;38.948;2023-04-24T08:13:14;17.35;63.87
64833;HTU21D;51290;45.060;38.948;2023-04-24T08:15:40;17.22;64.09
64833;HTU21D;51290;45.060;38.948;2023-04-24T08:18:06;17.10;64.33
64833;HTU21D;51290;45.060;38.948;2023-04-24T08:20:32;17.02;64.27
64833;HTU21D;51290;45.060;38.948;2023-04-24T08:22:58;16.88;64.27
64833;HTU21D;51290;45.060;38.948;2023-04-24T08:25:24;16.76;64.47
64833;HTU21D;51290;45.060;38.948;2023-04-24T08:27:51;16.67;64.58
64833;HTU21D;51290;45.060;38.948;2023-04-24T08:30:17;16.60;64.69
64833;HTU21D;51290;45.060;38.948;2023-04-24T08:32:44;16.55;64.85
64833;HTU21D;51290;45.060;38.948;2023-04-24T08:35:09;16.52;65.03
64833;HTU21D;51290;45.060;38.948;2023-04-24T08:37:36;16.45;64.99
64833;HTU21D;51290;45.060;38.948;2023-04-24T08:40:26;16.29;65.06
64833;HTU21D;51290;45.060;38.948;2023-04-24T08:42:54;16.08;65.09
64833;HTU21D;51290;45.060;38.948;2023-04-24T08:45:24;15.80;65.50
64833;HTU21D;51290;45.060;38.948;2023-04-24T08:47:52;15.53;65.96
64833;HTU21D;51290;45.060;38.948;2023-04-24T08:50:20;15.28;66.43
64833;HTU21D;51290;45.060;38.948;2023-04-24T08:52:48;15.10;66.81
64833;HTU21D;51290;45.060;38.948;2023-04-24T08:55:15;14.93;67.10
64833;HTU21D;51290;45.060;38.948;2023-04-24T08:57:45;14.80;67.34
64833;HTU21D;51290;45.060;38.948;2023-04-24T09:00:11;14.66;67.42
64833;HTU21D;51290;45.060;38.948;2023-04-24T09:02:41;14.53;67.62
64833;HTU21D;51290;45.060;38.948;2023-04-24T09:05:09;14.38;67.80
64833;HTU21D;51290;45.060;38.948;2023-04-24T09:07:35;14.25;68.00
64833;HTU21D;51290;45.060;38.948;2023-04-24T09:10:04;14.19;68.21
64833;HTU21D;51290;45.060;38.948;2023-04-24T09:12:30;14.12;68.35
64833;HTU21D;51290;45.060;38.948;2023-04-24T09:14:57;14.10;68.47
64833;HTU21D;51290;45.060;38.948;2023-04-24T09:17:24;14.12;68.47
64833;HTU21D;51290;45.060;38.948;2023-04-24T09:19:52;14.11;68.42
64833;HTU21D;51290;45.060;38.948;2023-04-24T09:22:18;14.07;68.49
64833;HTU21D;51290;45.060;38.948;2023-04-24T09:24:45;14.06;68.64
64833;HTU21D;51290;45.060;38.948;2023-04-24T09:27:11;14.09;68.77
64833;HTU21D;51290;45.060;38.948;2023-04-24T09:29:55;14.11;68.81
64833;HTU21D;51290;45.060;38.948;2023-04-24T09:32:22;14.11;68.77
64833;HTU21D;51290;45.060;38.948;2023-04-24T09:35:08;14.09;68.87
64833;HTU21D;51290;45.060;38.948;2023-04-24T09:37:36;14.10;68.97
64833;HTU21D;51290;45.060;38.948;2023-04-24T09:40:13;14.12;69.15
64833;HTU21D;51290;45.060;38.948;2023-04-24T09:42:43;14.17;69.22
64833;HTU21D;51290;45.060;38.948;2023-04-24T09:45:10;14.22;69.31
64833;HTU21D;51290;45.060;38.948;2023-04-24T09:47:40;14.29;69.33
64833;HTU21D;51290;45.060;38.948;2023-04-24T09:50:11;14.42;69.40
64833;HTU21D;51290;45.060;38.948;2023-04-24T09:52:43;14.59;69.30
64833;HTU21D;51290;45.060;38.948;2023-04-24T09:55:27;14.80;69.10
64833;HTU21D;51290;45.060;38.948;2023-04-24T09:58:00;14.96;68.87
64833;HTU21D;51290;45.060;38.948;2023-04-24T10:00:28;15.09;68.69
64833;HTU21D;51290;45.060;38.948;2023-04-24T10:03:04;15.19;68.49
64833;HTU21D;51290;45.060;38.948;2023-04-24T10:05:32;15.24;68.35
64833;HTU21D;51290;45.060;38.948;2023-04-24T10:08:01;15.26;68.38
64833;HTU21D;51290;45.060;38.948;2023-04-24T10:10:29;15.26;68.41
64833;HTU21D;51290;45.060;38.948;2023-04-24T10:12:56;15.25;68.49
64833;HTU21D;51290;45.060;38.948;2023-04-24T10:15:22;15.27;68.54
64833;HTU21D;51290;45.060;38.948;2023-04-24T10:17:50;15.28;68.54
64833;HTU21D;51290;45.060;38.948;2023-04-24T10:20:23;15.24;68.62
64833;HTU21D;51290;45.060;38.948;2023-04-24T10:22:52;15.18;68.74
64833;HTU21D;51290;45.060;38.948;2023-04-24T10:25:20;15.16;68.87
64833;HTU21D;51290;45.060;38.948;2023-04-24T10:27:47;15.21;68.97
64833;HTU21D;51290;45.060;38.948;2023-04-24T10:30:13;15.26;69.02
64833;HTU21D;51290;45.060;38.948;2023-04-24T10:32:40;15.34;69.00
64833;HTU21D;51290;45.060;38.948;2023-04-24T10:35:07;15.47;68.94
64833;HTU21D;51290;45.060;38.948;2023-04-24T10:38:03;15.60;68.75
64833;HTU21D;51290;45.060;38.948;2023-04-24T10:40:35;15.67;68.50
64833;HTU21D;51290;45.060;38.948;2023-04-24T10:43:08;15.69;68.44
64833;HTU21D;51290;45.060;38.948;2023-04-24T10:45:37;15.69;68.40
64833;HTU21D;51290;45.060;38.948;2023-04-24T10:48:05;15.68;68.51
64833;HTU21D;51290;45.060;38.948;2023-04-24T10:50:46;15.69;68.60
64833;HTU21D;51290;45.060;38.948;2023-04-24T10:53:21;15.70;68.55
64833;HTU21D;51290;45.060;38.948;2023-04-24T10:55:58;15.67;68.53
64833;HTU21D;51290;45.060;38.948;2023-04-24T10:58:39;15.67;68.62
64833;HTU21D;51290;45.060;38.948;2023-04-24T11:01:06;15.68;68.71
64833;HTU21D;51290;45.060;38.948;2023-04-24T11:03:34;15.72;68.73
64833;HTU21D;51290;45.060;38.948;2023-04-24T11:06:07;15.74;68.69
64833;HTU21D;51290;45.060;38.948;2023-04-24T11:08:45;15.75;68.71
64833;HTU21D;51290;45.060;38.948;2023-04-24T11:11:16;15.77;68.64
64833;HTU21D;51290;45.060;38.948;2023-04-24T11:16:25;15.71;68.67
64833;HTU21D;51290;45.060;38.948;2023-04-24T11:18:59;15.63;68.78
64833;HTU21D;51290;45.060;38.948;2023-04-24T11:21:25;15.60;68.91
64833;HTU21D;51290;45.060;38.948;2023-04-24T11:23:57;15.59;69.01
64833;HTU21D;51290;45.060;38.948;2023-04-24T11:26:23;15.59;69.04
64833;HTU21D;51290;45.060;38.948;2023-04-24T11:29:08;15.59;69.11
64833;HTU21D;51290;45.060;38.948;2023-04-24T11:31:39;15.60;69.17
64833;HTU21D;51290;45.060;38.948;2023-04-24T11:34:10;15.63;69.21
64833;HTU21D;51290;45.060;38.948;2023-04-24T11:36:36;15.61;69.15
64833;HTU21D;51290;45.060;38.948;2023-04-24T11:39:02;15.61;69.16
64833;HTU21D;51290;45.060;38.948;2023-04-24T11:41:29;15.59;69.18
64833;HTU21D;51290;45.060;38.948;2023-04-24T11:43:56;15.57;69.25
64833;HTU21D;51290;45.060;38.948;2023-04-24T11:46:22;15.53;69.32
64833;HTU21D;51290;45.060;38.948;2023-04-24T11:48:48;15.51;69.36
64833;HTU21D;51290;45.060;38.948;2023-04-24T11:51:14;15.46;69.40
64833;HTU21D;51290;45.060;38.948;2023-04-24T11:53:40;15.45;69.50
64833;HTU21D;51290;45.060;38.948;2023-04-24T11:56:08;15.45;69.59
64833;HTU21D;51290;45.060;38.948;2023-04-24T11:58:35;15.43;69.57
64833;HTU21D;51290;45.060;38.948;2023-04-24T12:01:02;15.44;69.58
64833;HTU21D;51290;45.060;38.948;2023-04-24T12:03:28;15.43;69.54
64833;HTU21D;51290;45.060;38.948;2023-04-24T12:06:14;15.36;69.52
64833;HTU21D;51290;45.060;38.948;2023-04-24T12:08:40;15.28;69.47
64833;HTU21D;51290;45.060;38.948;2023-04-24T12:11:07;15.23;69.53
64833;HTU21D;51290;45.060;38.948;2023-04-24T12:13:34;15.15;69.59
64833;HTU21D;51290;45.060;38.948;2023-04-24T12:16:04;15.07;69.72
64833;HTU21D;51290;45.060;38.948;2023-04-24T12:18:31;15.01;69.85
64833;HTU21D;51290;45.060;38.948;2023-04-24T12:21:21;14.97;69.94
64833;HTU21D;51290;45.060;38.948;2023-04-24T12:23:47;14.95;70.06
64833;HTU21D;51290;45.060;38.948;2023-04-24T12:26:18;14.92;70.09
64833;HTU21D;51290;45.060;38.948;2023-04-24T12:28:47;14.89;70.13
64833;HTU21D;51290;45.060;38.948;2023-04-24T12:31:13;14.87;70.20
64833;HTU21D;51290;45.060;38.948;2023-04-24T12:33:40;14.89;70.28
64833;HTU21D;51290;45.060;38.948;2023-04-24T12:36:06;14.89;70.40
64833;HTU21D;51290;45.060;38.948;2023-04-24T12:38:35;14.92;70.46
64833;HTU21D;51290;45.060;38.948;2023-04-24T12:41:11;14.96;70.49
64833;HTU21D;51290;45.060;38.948;2023-04-24T12:43:37;14.99;70.43
64833;HTU21D;51290;45.060;38.948;2023-04-24T12:46:04;15.02;70.51
64833;HTU21D;51290;45.060;38.948;2023-04-24T12:48:30;15.13;70.50
64833;HTU21D;51290;45.060;38.948;2023-04-24T12:50:58;15.22;70.45
64833;HTU21D;51290;45.060;38.948;2023-04-24T12:53:27;15.32;70.33
64833;HTU21D;51290;45.060;38.948;2023-04-24T12:55:55;15.41;70.27
64833;HTU21D;51290;45.060;38.948;2023-04-24T12:58:21;15.47;70.19
64833;HTU21D;51290;45.060;38.948;2023-04-24T13:00:47;15.54;70.09
64833;HTU21D;51290;45.060;38.948;2023-04-24T13:03:14;15.57;69.97
64833;HTU21D;51290;45.060;38.948;2023-04-24T13:05:41;15.58;69.94
64833;HTU21D;51290;45.060;38.948;2023-04-24T13:08:07;15.57;69.95
64833;HTU21D;51290;45.060;38.948;2023-04-24T13:10:34;15.54;69.91
64833;HTU21D;51290;45.060;38.948;2023-04-24T13:13:00;15.49;69.98
64833;HTU21D;51290;45.060;38.948;2023-04-24T13:15:26;15.45;70.04
64833;HTU21D;51290;45.060;38.948;2023-04-24T13:17:52;15.42;70.07
64833;HTU21D;51290;45.060;38.948;2023-04-24T13:20:18;15.38;70.12
64833;HTU21D;51290;45.060;38.948;2023-04-24T13:22:44;15.34;70.16
64833;HTU21D;51290;45.060;38.948;2023-04-24T13:25:10;15.30;70.19
64833;HTU21D;51290;45.060;38.948;2023-04-24T13:27:38;15.27;70.33
64833;HTU21D;51290;45.060;38.948;2023-04-24T13:30:05;15.28;70.42
64833;HTU21D;51290;45.060;38.948;2023-04-24T13:32:32;15.30;70.43
64833;HTU21D;51290;45.060;38.948;2023-04-24T13:34:59;15.32;70.40
64833;HTU21D;51290;45.060;38.948;2023-04-24T13:37:24;15.34;70.40
64833;HTU21D;51290;45.060;38.948;2023-04-24T13:39:51;15.34;70.35
64833;HTU21D;51290;45.060;38.948;2023-04-24T13:42:17;15.31;70.35
64833;HTU21D;51290;45.060;38.948;2023-04-24T13:44:44;15.30;70.39
64833;HTU21D;51290;45.060;38.948;2023-04-24T13:47:10;15.30;70.39
64833;HTU21D;51290;45.060;38.948;2023-04-24T13:49:36;15.31;70.44
64833;HTU21D;51290;45.060;38.948;2023-04-24T13:52:02;15.33;70.42
64833;HTU21D;51290;45.060;38.948;2023-04-24T13:54:28;15.38;70.43
64833;HTU21D;51290;45.060;38.948;2023-04-24T13:56:57;15.43;70.45
64833;HTU21D;51290;45.060;38.948;2023-04-24T13:59:23;15.52;70.48
64833;HTU21D;51290;45.060;38.948;2023-04-24T14:01:49;15.63;70.42
64833;HTU21D;51290;45.060;38.948;2023-04-24T14:04:15;15.73;70.35
64833;HTU21D;51290;45.060;38.948;2023-04-24T14:06:41;15.85;70.28
64833;HTU21D;51290;45.060;38.948;2023-04-24T14:09:07;15.95;70.18
64833;HTU21D;51290;45.060;38.948;2023-04-24T14:11:34;16.04;70.10
64833;HTU21D;51290;45.060;38.948;2023-04-24T14:14:00;16.14;70.00
64833;HTU21D;51290;45.060;38.948;2023-04-24T14:16:26;16.28;69.89
64833;HTU21D;51290;45.060;38.948;2023-04-24T14:18:52;16.40;69.73
64833;HTU21D;51290;45.060;38.948;2023-04-24T14:21:18;16.50;69.57
64833;HTU21D;51290;45.060;38.948;2023-04-24T14:23:43;16.55;69.40
64833;HTU21D;51290;45.060;38.948;2023-04-24T14:26:09;16.55;69.31
64833;HTU21D;51290;45.060;38.948;2023-04-24T14:28:35;16.54;69.29
64833;HTU21D;51290;45.060;38.948;2023-04-24T14:31:01;16.54;69.32
64833;HTU21D;51290;45.060;38.948;2023-04-24T14:33:27;16.52;69.30
64833;HTU21D;51290;45.060;38.948;2023-04-24T14:35:53;16.44;69.16
64833;HTU21D;51290;45.060;38.948;2023-04-24T14:38:20;16.30;69.12
64833;HTU21D;51290;45.060;38.948;2023-04-24T14:40:46;16.15;69.24
64833;HTU21D;51290;45.060;38.948;2023-04-24T14:43:12;16.01;69.36
64833;HTU21D;51290;45.060;38.948;2023-04-24T14:45:38;15.85;69.44
64833;HTU21D;51290;45.060;38.948;2023-04-24T14:48:06;15.69;69.52
64833;HTU21D;51290;45.060;38.948;2023-04-24T14:50:33;15.52;69.70
64833;HTU21D;51290;45.060;38.948;2023-04-24T14:52:59;15.32;69.97
64833;HTU21D;51290;45.060;38.948;2023-04-24T14:55:27;15.19;70.32
64833;HTU21D;51290;45.060;38.948;2023-04-24T14:57:53;15.12;70.58
64833;HTU21D;51290;45.060;38.948;2023-04-24T15:00:20;15.03;70.65
64833;HTU21D;51290;45.060;38.948;2023-04-24T15:02:46;14.95;70.71
64833;HTU21D;51290;45.060;38.948;2023-04-24T15:05:12;14.87;70.78
64833;HTU21D;51290;45.060;38.948;2023-04-24T15:07:38;14.78;70.90
64833;HTU21D;51290;45.060;38.948;2023-04-24T15:10:07;14.72;71.05